sensor_id;sensor_type;location;lat;lon;timestamp;P1;durP1;ratioP1;P2;durP2;ratioP2
61911;SDS011;49973;52.084;5.412;2022-12-10T00:01:47;58.97;;;22.03;;
61911;SDS011;49973;52.084;5.412;2022-12-10T00:04:18;51.27;;;20.40;;
61911;SDS011;49973;52.084;5.412;2022-12-10T00:06:47;62.47;;;22.23;;
61911;SDS011;49973;52.084;5.412;2022-12-10T00:09:16;43.53;;;20.23;;
61911;SDS011;49973;52.084;5.412;2022-12-10T00:11:46;58.33;;;23.07;;
61911;SDS011;49973;52.084;5.412;2022-12-10T00:14:16;47.63;;;21.87;;
61911;SDS011;49973;52.084;5.412;2022-12-10T00:16:45;48.53;;;20.03;;
61911;SDS011;49973;52.084;5.412;2022-12-10T00:19:13;49.20;;;20.77;;
61911;SDS011;49973;52.084;5.412;2022-12-10T00:21:43;50.80;;;21.23;;
61911;SDS011;49973;52.084;5.412;2022-12-10T00:24:13;53.23;;;22.57;;
61911;SDS011;49973;52.084;5.412;2022-12-10T00:26:41;44.20;;;20.70;;
61911;SDS011;49973;52.084;5.412;2022-12-10T00:29:12;46.40;;;19.63;;
61911;SDS011;49973;52.084;5.412;2022-12-10T00:31:41;53.97;;;21.23;;
61911;SDS011;49973;52.084;5.412;2022-12-10T00:34:10;50.07;;;20.23;;
61911;SDS011;49973;52.084;5.412;2022-12-10T00:36:40;64.57;;;23.23;;
61911;SDS011;49973;52.084;5.412;2022-12-10T00:39:13;52.20;;;21.40;;
61911;SDS011;49973;52.084;5.412;2022-12-10T00:41:43;68.20;;;23.40;;
61911;SDS011;49973;52.084;5.412;2022-12-10T00:44:12;61.23;;;22.40;;
61911;SDS011;49973;52.084;5.412;2022-12-10T00:46:42;65.97;;;22.40;;
61911;SDS011;49973;52.084;5.412;2022-12-10T00:49:10;60.73;;;25.30;;
61911;SDS011;49973;52.084;5.412;2022-12-10T00:51:39;57.87;;;23.63;;
61911;SDS011;49973;52.084;5.412;2022-12-10T00:54:10;70.87;;;24.90;;
61911;SDS011;49973;52.084;5.412;2022-12-10T00:56:40;60.67;;;22.83;;
61911;SDS011;49973;52.084;5.412;2022-12-10T00:59:09;61.57;;;23.57;;
61911;SDS011;49973;52.084;5.412;2022-12-10T01:01:38;68.10;;;24.40;;
61911;SDS011;49973;52.084;5.412;2022-12-10T01:04:10;57.43;;;24.97;;
61911;SDS011;49973;52.084;5.412;2022-12-10T01:06:41;62.63;;;25.27;;
61911;SDS011;49973;52.084;5.412;2022-12-10T01:09:11;66.67;;;25.97;;
61911;SDS011;49973;52.084;5.412;2022-12-10T01:11:44;58.43;;;23.57;;
61911;SDS011;49973;52.084;5.412;2022-12-10T01:14:15;53.90;;;22.70;;
61911;SDS011;49973;52.084;5.412;2022-12-10T01:16:47;64.13;;;24.13;;
61911;SDS011;49973;52.084;5.412;2022-12-10T01:19:16;66.17;;;23.43;;
61911;SDS011;49973;52.084;5.412;2022-12-10T01:21:44;68.53;;;25.63;;
61911;SDS011;49973;52.084;5.412;2022-12-10T01:24:14;56.70;;;24.83;;
61911;SDS011;49973;52.084;5.412;2022-12-10T01:26:43;53.43;;;21.93;;
61911;SDS011;49973;52.084;5.412;2022-12-10T01:29:12;57.20;;;24.33;;
61911;SDS011;49973;52.084;5.412;2022-12-10T01:31:41;66.37;;;24.77;;
61911;SDS011;49973;52.084;5.412;2022-12-10T01:34:11;66.40;;;24.73;;
61911;SDS011;49973;52.084;5.412;2022-12-10T01:36:42;66.10;;;26.13;;
61911;SDS011;49973;52.084;5.412;2022-12-10T01:39:12;63.00;;;25.47;;
61911;SDS011;49973;52.084;5.412;2022-12-10T01:41:44;58.33;;;23.13;;
61911;SDS011;49973;52.084;5.412;2022-12-10T01:47:22;68.53;;;26.40;;
61911;SDS011;49973;52.084;5.412;2022-12-10T01:49:51;55.40;;;22.37;;
61911;SDS011;49973;52.084;5.412;2022-12-10T01:52:20;62.73;;;23.40;;
61911;SDS011;49973;52.084;5.412;2022-12-10T01:54:49;58.53;;;22.60;;
61911;SDS011;49973;52.084;5.412;2022-12-10T01:57:19;59.57;;;23.23;;
61911;SDS011;49973;52.084;5.412;2022-12-10T01:59:50;64.30;;;24.67;;
61911;SDS011;49973;52.084;5.412;2022-12-10T02:02:24;63.70;;;22.63;;
61911;SDS011;49973;52.084;5.412;2022-12-10T02:05:02;68.87;;;23.77;;
61911;SDS011;49973;52.084;5.412;2022-12-10T02:07:44;69.60;;;24.33;;
61911;SDS011;49973;52.084;5.412;2022-12-10T02:10:23;71.07;;;24.63;;
61911;SDS011;49973;52.084;5.412;2022-12-10T02:13:03;69.97;;;22.90;;
61911;SDS011;49973;52.084;5.412;2022-12-10T02:15:38;74.73;;;22.17;;
61911;SDS011;49973;52.084;5.412;2022-12-10T02:18:11;57.70;;;23.50;;
61911;SDS011;49973;52.084;5.412;2022-12-10T02:20:45;79.47;;;25.73;;
61911;SDS011;49973;52.084;5.412;2022-12-10T02:23:16;89.53;;;25.43;;
61911;SDS011;49973;52.084;5.412;2022-12-10T02:25:53;104.37;;;24.30;;
61911;SDS011;49973;52.084;5.412;2022-12-10T02:28:31;58.00;;;22.43;;
61911;SDS011;49973;52.084;5.412;2022-12-10T02:31:09;64.23;;;22.47;;
61911;SDS011;49973;52.084;5.412;2022-12-10T02:33:40;70.73;;;23.50;;
61911;SDS011;49973;52.084;5.412;2022-12-10T02:36:13;65.13;;;23.83;;
61911;SDS011;49973;52.084;5.412;2022-12-10T02:38:42;79.60;;;25.30;;
61911;SDS011;49973;52.084;5.412;2022-12-10T02:41:14;70.47;;;25.70;;
61911;SDS011;49973;52.084;5.412;2022-12-10T02:43:46;94.27;;;23.07;;
61911;SDS011;49973;52.084;5.412;2022-12-10T02:46:20;87.73;;;25.37;;
61911;SDS011;49973;52.084;5.412;2022-12-10T02:48:51;93.30;;;24.10;;
61911;SDS011;49973;52.084;5.412;2022-12-10T02:51:20;99.37;;;23.50;;
61911;SDS011;49973;52.084;5.412;2022-12-10T02:53:58;87.87;;;25.80;;
61911;SDS011;49973;52.084;5.412;2022-12-10T02:56:31;104.60;;;23.90;;
61911;SDS011;49973;52.084;5.412;2022-12-10T02:59:06;100.27;;;26.73;;
61911;SDS011;49973;52.084;5.412;2022-12-10T03:01:49;68.93;;;24.37;;
61911;SDS011;49973;52.084;5.412;2022-12-10T03:04:28;112.87;;;26.57;;
61911;SDS011;49973;52.084;5.412;2022-12-10T03:07:05;91.47;;;26.13;;
61911;SDS011;49973;52.084;5.412;2022-12-10T03:09:39;92.83;;;25.37;;
61911;SDS011;49973;52.084;5.412;2022-12-10T03:12:14;103.00;;;27.57;;
61911;SDS011;49973;52.084;5.412;2022-12-10T03:14:46;106.00;;;27.83;;
61911;SDS011;49973;52.084;5.412;2022-12-10T03:17:17;107.27;;;25.70;;
61911;SDS011;49973;52.084;5.412;2022-12-10T03:19:47;90.27;;;24.87;;
61911;SDS011;49973;52.084;5.412;2022-12-10T03:22:18;100.27;;;27.67;;
61911;SDS011;49973;52.084;5.412;2022-12-10T03:24:48;115.10;;;27.00;;
61911;SDS011;49973;52.084;5.412;2022-12-10T03:27:17;141.90;;;27.73;;
61911;SDS011;49973;52.084;5.412;2022-12-10T03:29:49;104.77;;;26.53;;
61911;SDS011;49973;52.084;5.412;2022-12-10T03:32:21;111.03;;;25.13;;
61911;SDS011;49973;52.084;5.412;2022-12-10T03:34:53;96.67;;;24.47;;
61911;SDS011;49973;52.084;5.412;2022-12-10T03:37:24;112.63;;;24.87;;
61911;SDS011;49973;52.084;5.412;2022-12-10T03:39:54;118.33;;;25.23;;
61911;SDS011;49973;52.084;5.412;2022-12-10T03:42:24;158.13;;;22.97;;
61911;SDS011;49973;52.084;5.412;2022-12-10T03:44:52;70.73;;;23.70;;
61911;SDS011;49973;52.084;5.412;2022-12-10T03:47:22;76.33;;;20.80;;
61911;SDS011;49973;52.084;5.412;2022-12-10T03:49:51;78.00;;;22.60;;
61911;SDS011;49973;52.084;5.412;2022-12-10T03:52:20;97.97;;;22.40;;
61911;SDS011;49973;52.084;5.412;2022-12-10T03:54:48;123.77;;;23.03;;
61911;SDS011;49973;52.084;5.412;2022-12-10T03:57:16;95.73;;;21.17;;
61911;SDS011;49973;52.084;5.412;2022-12-10T03:59:45;73.23;;;22.33;;
61911;SDS011;49973;52.084;5.412;2022-12-10T04:02:13;109.57;;;22.77;;
61911;SDS011;49973;52.084;5.412;2022-12-10T04:04:43;80.33;;;18.67;;
61911;SDS011;49973;52.084;5.412;2022-12-10T04:07:12;85.20;;;21.27;;
61911;SDS011;49973;52.084;5.412;2022-12-10T04:09:41;102.60;;;23.80;;
61911;SDS011;49973;52.084;5.412;2022-12-10T04:12:09;105.73;;;21.47;;
61911;SDS011;49973;52.084;5.412;2022-12-10T04:14:39;64.77;;;20.20;;
61911;SDS011;49973;52.084;5.412;2022-12-10T04:17:25;99.43;;;24.33;;
61911;SDS011;49973;52.084;5.412;2022-12-10T04:19:54;135.67;;;24.80;;
61911;SDS011;49973;52.084;5.412;2022-12-10T04:22:23;117.13;;;25.33;;
61911;SDS011;49973;52.084;5.412;2022-12-10T04:25:10;117.60;;;22.03;;
61911;SDS011;49973;52.084;5.412;2022-12-10T04:27:57;89.10;;;21.33;;
61911;SDS011;49973;52.084;5.412;2022-12-10T04:30:25;93.00;;;24.53;;
61911;SDS011;49973;52.084;5.412;2022-12-10T04:32:54;158.20;;;27.00;;
61911;SDS011;49973;52.084;5.412;2022-12-10T04:35:24;152.17;;;26.90;;
61911;SDS011;49973;52.084;5.412;2022-12-10T04:37:52;119.87;;;24.77;;
61911;SDS011;49973;52.084;5.412;2022-12-10T04:40:21;146.50;;;26.83;;
61911;SDS011;49973;52.084;5.412;2022-12-10T04:42:51;124.00;;;25.60;;
61911;SDS011;49973;52.084;5.412;2022-12-10T04:45:19;123.00;;;24.27;;
61911;SDS011;49973;52.084;5.412;2022-12-10T04:47:48;158.00;;;25.50;;
61911;SDS011;49973;52.084;5.412;2022-12-10T04:50:16;196.87;;;25.67;;
61911;SDS011;49973;52.084;5.412;2022-12-10T04:52:46;78.67;;;23.40;;
61911;SDS011;49973;52.084;5.412;2022-12-10T04:55:15;132.17;;;25.20;;
61911;SDS011;49973;52.084;5.412;2022-12-10T04:57:44;119.00;;;27.07;;
61911;SDS011;49973;52.084;5.412;2022-12-10T05:00:12;149.00;;;26.27;;
61911;SDS011;49973;52.084;5.412;2022-12-10T05:02:41;97.77;;;25.13;;
61911;SDS011;49973;52.084;5.412;2022-12-10T05:05:09;168.60;;;28.40;;
61911;SDS011;49973;52.084;5.412;2022-12-10T05:07:39;127.77;;;25.77;;
61911;SDS011;49973;52.084;5.412;2022-12-10T05:10:09;182.53;;;28.90;;
61911;SDS011;49973;52.084;5.412;2022-12-10T05:12:37;213.73;;;29.17;;
61911;SDS011;49973;52.084;5.412;2022-12-10T05:15:06;111.17;;;24.60;;
61911;SDS011;49973;52.084;5.412;2022-12-10T05:17:35;140.23;;;27.30;;
61911;SDS011;49973;52.084;5.412;2022-12-10T05:20:04;154.20;;;27.57;;
61911;SDS011;49973;52.084;5.412;2022-12-10T05:22:34;149.63;;;25.70;;
61911;SDS011;49973;52.084;5.412;2022-12-10T05:25:21;145.37;;;27.47;;
61911;SDS011;49973;52.084;5.412;2022-12-10T05:27:50;126.80;;;28.10;;
61911;SDS011;49973;52.084;5.412;2022-12-10T05:30:18;159.60;;;28.80;;
61911;SDS011;49973;52.084;5.412;2022-12-10T05:32:47;182.23;;;30.73;;
61911;SDS011;49973;52.084;5.412;2022-12-10T05:35:15;131.53;;;27.53;;
61911;SDS011;49973;52.084;5.412;2022-12-10T05:37:44;132.37;;;27.40;;
61911;SDS011;49973;52.084;5.412;2022-12-10T05:40:12;123.57;;;28.97;;
61911;SDS011;49973;52.084;5.412;2022-12-10T05:42:42;121.93;;;25.20;;
61911;SDS011;49973;52.084;5.412;2022-12-10T05:45:11;137.57;;;25.53;;
61911;SDS011;49973;52.084;5.412;2022-12-10T05:47:39;268.90;;;31.63;;
61911;SDS011;49973;52.084;5.412;2022-12-10T05:50:08;178.37;;;26.33;;
61911;SDS011;49973;52.084;5.412;2022-12-10T05:52:37;127.87;;;24.60;;
61911;SDS011;49973;52.084;5.412;2022-12-10T05:55:05;123.13;;;25.00;;
61911;SDS011;49973;52.084;5.412;2022-12-10T05:57:35;153.03;;;25.87;;
61911;SDS011;49973;52.084;5.412;2022-12-10T06:00:05;210.23;;;28.93;;
61911;SDS011;49973;52.084;5.412;2022-12-10T06:02:37;209.10;;;28.40;;
61911;SDS011;49973;52.084;5.412;2022-12-10T06:05:07;118.03;;;25.27;;
61911;SDS011;49973;52.084;5.412;2022-12-10T06:07:36;179.67;;;28.27;;
61911;SDS011;49973;52.084;5.412;2022-12-10T06:10:05;233.57;;;28.90;;
61911;SDS011;49973;52.084;5.412;2022-12-10T06:12:34;155.13;;;28.70;;
61911;SDS011;49973;52.084;5.412;2022-12-10T06:15:03;197.77;;;27.70;;
61911;SDS011;49973;52.084;5.412;2022-12-10T06:17:33;132.60;;;25.60;;
61911;SDS011;49973;52.084;5.412;2022-12-10T06:20:03;135.00;;;25.97;;
61911;SDS011;49973;52.084;5.412;2022-12-10T06:22:32;173.27;;;26.87;;
61911;SDS011;49973;52.084;5.412;2022-12-10T06:25:01;91.83;;;24.63;;
61911;SDS011;49973;52.084;5.412;2022-12-10T06:27:31;154.80;;;24.67;;
61911;SDS011;49973;52.084;5.412;2022-12-10T06:30:00;188.57;;;25.80;;
61911;SDS011;49973;52.084;5.412;2022-12-10T06:32:30;160.03;;;27.43;;
61911;SDS011;49973;52.084;5.412;2022-12-10T06:34:58;125.53;;;24.57;;
61911;SDS011;49973;52.084;5.412;2022-12-10T06:37:26;222.53;;;30.27;;
61911;SDS011;49973;52.084;5.412;2022-12-10T06:39:55;133.93;;;24.93;;
61911;SDS011;49973;52.084;5.412;2022-12-10T06:42:23;104.43;;;23.73;;
61911;SDS011;49973;52.084;5.412;2022-12-10T06:44:52;88.80;;;24.30;;
61911;SDS011;49973;52.084;5.412;2022-12-10T06:47:20;98.17;;;27.00;;
61911;SDS011;49973;52.084;5.412;2022-12-10T06:49:50;91.17;;;22.50;;
61911;SDS011;49973;52.084;5.412;2022-12-10T06:52:19;96.10;;;24.77;;
61911;SDS011;49973;52.084;5.412;2022-12-10T06:54:47;100.83;;;20.53;;
61911;SDS011;49973;52.084;5.412;2022-12-10T06:57:16;141.30;;;24.03;;
61911;SDS011;49973;52.084;5.412;2022-12-10T06:59:44;136.43;;;26.10;;
61911;SDS011;49973;52.084;5.412;2022-12-10T07:02:13;90.83;;;24.10;;
61911;SDS011;49973;52.084;5.412;2022-12-10T07:04:41;101.23;;;24.63;;
61911;SDS011;49973;52.084;5.412;2022-12-10T07:07:11;107.27;;;24.30;;
61911;SDS011;49973;52.084;5.412;2022-12-10T07:09:40;108.00;;;26.70;;
61911;SDS011;49973;52.084;5.412;2022-12-10T07:12:08;94.63;;;23.97;;
61911;SDS011;49973;52.084;5.412;2022-12-10T07:14:37;82.33;;;24.43;;
61911;SDS011;49973;52.084;5.412;2022-12-10T07:17:05;134.30;;;24.93;;
61911;SDS011;49973;52.084;5.412;2022-12-10T07:19:34;88.93;;;22.27;;
61911;SDS011;49973;52.084;5.412;2022-12-10T07:22:02;88.67;;;24.07;;
61911;SDS011;49973;52.084;5.412;2022-12-10T07:24:32;135.93;;;23.07;;
61911;SDS011;49973;52.084;5.412;2022-12-10T07:27:04;78.50;;;22.73;;
61911;SDS011;49973;52.084;5.412;2022-12-10T07:29:33;73.93;;;22.33;;
61911;SDS011;49973;52.084;5.412;2022-12-10T07:32:02;60.17;;;18.67;;
61911;SDS011;49973;52.084;5.412;2022-12-10T07:34:30;58.40;;;19.23;;
61911;SDS011;49973;52.084;5.412;2022-12-10T07:36:59;78.67;;;20.17;;
61911;SDS011;49973;52.084;5.412;2022-12-10T07:39:27;116.10;;;22.63;;
61911;SDS011;49973;52.084;5.412;2022-12-10T07:41:57;65.80;;;20.10;;
61911;SDS011;49973;52.084;5.412;2022-12-10T07:44:27;74.37;;;21.17;;
61911;SDS011;49973;52.084;5.412;2022-12-10T07:46:56;72.47;;;19.17;;
61911;SDS011;49973;52.084;5.412;2022-12-10T07:49:24;63.23;;;20.77;;
61911;SDS011;49973;52.084;5.412;2022-12-10T07:51:53;52.80;;;19.80;;
61911;SDS011;49973;52.084;5.412;2022-12-10T07:54:21;72.30;;;22.73;;
61911;SDS011;49973;52.084;5.412;2022-12-10T07:56:50;72.37;;;21.93;;
61911;SDS011;49973;52.084;5.412;2022-12-10T07:59:19;115.73;;;22.20;;
61911;SDS011;49973;52.084;5.412;2022-12-10T08:01:48;107.83;;;24.70;;
61911;SDS011;49973;52.084;5.412;2022-12-10T08:04:17;105.23;;;23.73;;
61911;SDS011;49973;52.084;5.412;2022-12-10T08:06:45;80.03;;;20.03;;
61911;SDS011;49973;52.084;5.412;2022-12-10T08:09:14;110.73;;;23.13;;
61911;SDS011;49973;52.084;5.412;2022-12-10T08:11:43;80.73;;;19.87;;
61911;SDS011;49973;52.084;5.412;2022-12-10T08:14:11;96.37;;;22.27;;
61911;SDS011;49973;52.084;5.412;2022-12-10T08:16:41;104.30;;;20.80;;
61911;SDS011;49973;52.084;5.412;2022-12-10T08:19:10;96.00;;;21.33;;
61911;SDS011;49973;52.084;5.412;2022-12-10T08:21:46;63.80;;;20.20;;
61911;SDS011;49973;52.084;5.412;2022-12-10T08:24:15;78.00;;;22.97;;
61911;SDS011;49973;52.084;5.412;2022-12-10T08:26:43;99.70;;;21.13;;
61911;SDS011;49973;52.084;5.412;2022-12-10T08:29:12;81.00;;;19.90;;
61911;SDS011;49973;52.084;5.412;2022-12-10T08:31:42;131.70;;;24.00;;
61911;SDS011;49973;52.084;5.412;2022-12-10T08:34:12;123.90;;;21.67;;
61911;SDS011;49973;52.084;5.412;2022-12-10T08:36:41;76.63;;;21.63;;
61911;SDS011;49973;52.084;5.412;2022-12-10T08:39:10;69.67;;;21.47;;
61911;SDS011;49973;52.084;5.412;2022-12-10T08:41:41;84.63;;;18.57;;
61911;SDS011;49973;52.084;5.412;2022-12-10T08:44:11;83.93;;;21.67;;
61911;SDS011;49973;52.084;5.412;2022-12-10T08:46:41;63.13;;;18.83;;
61911;SDS011;49973;52.084;5.412;2022-12-10T08:49:10;104.83;;;20.87;;
61911;SDS011;49973;52.084;5.412;2022-12-10T08:51:38;69.77;;;19.43;;
61911;SDS011;49973;52.084;5.412;2022-12-10T08:54:07;88.30;;;18.73;;
61911;SDS011;49973;52.084;5.412;2022-12-10T08:56:35;55.63;;;17.57;;
61911;SDS011;49973;52.084;5.412;2022-12-10T08:59:05;60.47;;;19.03;;
61911;SDS011;49973;52.084;5.412;2022-12-10T09:01:34;87.50;;;18.50;;
61911;SDS011;49973;52.084;5.412;2022-12-10T09:04:04;67.17;;;16.77;;
61911;SDS011;49973;52.084;5.412;2022-12-10T09:06:33;77.37;;;17.20;;
61911;SDS011;49973;52.084;5.412;2022-12-10T09:09:01;68.27;;;18.43;;
61911;SDS011;49973;52.084;5.412;2022-12-10T09:11:31;63.90;;;18.17;;
61911;SDS011;49973;52.084;5.412;2022-12-10T09:14:01;58.03;;;17.07;;
61911;SDS011;49973;52.084;5.412;2022-12-10T09:16:31;83.80;;;19.30;;
61911;SDS011;49973;52.084;5.412;2022-12-10T09:19:01;70.93;;;18.73;;
61911;SDS011;49973;52.084;5.412;2022-12-10T09:21:32;81.83;;;18.77;;
61911;SDS011;49973;52.084;5.412;2022-12-10T09:24:00;107.93;;;19.40;;
61911;SDS011;49973;52.084;5.412;2022-12-10T09:26:29;95.87;;;18.87;;
61911;SDS011;49973;52.084;5.412;2022-12-10T09:28:57;114.97;;;20.93;;
61911;SDS011;49973;52.084;5.412;2022-12-10T09:31:27;53.80;;;19.63;;
61911;SDS011;49973;52.084;5.412;2022-12-10T09:33:56;56.20;;;17.73;;
61911;SDS011;49973;52.084;5.412;2022-12-10T09:36:25;75.27;;;19.73;;
61911;SDS011;49973;52.084;5.412;2022-12-10T09:39:01;68.87;;;19.30;;
61911;SDS011;49973;52.084;5.412;2022-12-10T09:41:36;66.97;;;19.23;;
61911;SDS011;49973;52.084;5.412;2022-12-10T09:44:21;60.40;;;17.60;;
61911;SDS011;49973;52.084;5.412;2022-12-10T09:47:00;118.43;;;19.70;;
61911;SDS011;49973;52.084;5.412;2022-12-10T09:49:33;93.43;;;19.73;;
61911;SDS011;49973;52.084;5.412;2022-12-10T09:52:10;72.77;;;16.53;;
61911;SDS011;49973;52.084;5.412;2022-12-10T09:54:43;70.77;;;19.07;;
61911;SDS011;49973;52.084;5.412;2022-12-10T09:57:17;112.00;;;19.90;;
61911;SDS011;49973;52.084;5.412;2022-12-10T09:59:50;80.23;;;18.33;;
61911;SDS011;49973;52.084;5.412;2022-12-10T10:02:20;53.47;;;17.27;;
61911;SDS011;49973;52.084;5.412;2022-12-10T10:04:53;71.47;;;16.97;;
61911;SDS011;49973;52.084;5.412;2022-12-10T10:07:23;60.50;;;17.70;;
61911;SDS011;49973;52.084;5.412;2022-12-10T10:09:56;46.73;;;15.47;;
61911;SDS011;49973;52.084;5.412;2022-12-10T10:12:27;58.90;;;17.57;;
61911;SDS011;49973;52.084;5.412;2022-12-10T10:14:56;79.43;;;19.93;;
61911;SDS011;49973;52.084;5.412;2022-12-10T10:17:27;53.60;;;20.23;;
61911;SDS011;49973;52.084;5.412;2022-12-10T10:20:01;65.03;;;20.13;;
61911;SDS011;49973;52.084;5.412;2022-12-10T10:22:30;65.57;;;19.20;;
61911;SDS011;49973;52.084;5.412;2022-12-10T10:25:00;56.83;;;17.30;;
61911;SDS011;49973;52.084;5.412;2022-12-10T10:27:29;92.37;;;17.77;;
61911;SDS011;49973;52.084;5.412;2022-12-10T10:30:00;82.43;;;18.97;;
61911;SDS011;49973;52.084;5.412;2022-12-10T10:32:43;104.50;;;17.73;;
61911;SDS011;49973;52.084;5.412;2022-12-10T10:35:20;70.93;;;17.60;;
61911;SDS011;49973;52.084;5.412;2022-12-10T10:37:59;108.37;;;18.60;;
61911;SDS011;49973;52.084;5.412;2022-12-10T10:40:31;50.37;;;17.47;;
61911;SDS011;49973;52.084;5.412;2022-12-10T10:43:08;46.60;;;15.87;;
61911;SDS011;49973;52.084;5.412;2022-12-10T10:45:43;58.57;;;16.47;;
61911;SDS011;49973;52.084;5.412;2022-12-10T10:48:17;57.00;;;17.63;;
61911;SDS011;49973;52.084;5.412;2022-12-10T10:50:48;51.10;;;16.43;;
61911;SDS011;49973;52.084;5.412;2022-12-10T10:53:26;56.13;;;16.73;;
61911;SDS011;49973;52.084;5.412;2022-12-10T10:56:04;57.47;;;19.60;;
61911;SDS011;49973;52.084;5.412;2022-12-10T10:58:35;57.60;;;17.03;;
61911;SDS011;49973;52.084;5.412;2022-12-10T11:01:04;57.33;;;17.67;;
61911;SDS011;49973;52.084;5.412;2022-12-10T11:03:35;43.37;;;16.07;;
61911;SDS011;49973;52.084;5.412;2022-12-10T11:06:05;66.63;;;17.53;;
61911;SDS011;49973;52.084;5.412;2022-12-10T11:08:35;58.70;;;15.40;;
61911;SDS011;49973;52.084;5.412;2022-12-10T11:11:14;50.63;;;16.23;;
61911;SDS011;49973;52.084;5.412;2022-12-10T11:13:47;47.87;;;17.17;;
61911;SDS011;49973;52.084;5.412;2022-12-10T11:16:17;50.07;;;16.63;;
61911;SDS011;49973;52.084;5.412;2022-12-10T11:18:51;57.83;;;16.13;;
61911;SDS011;49973;52.084;5.412;2022-12-10T11:21:23;43.57;;;17.23;;
61911;SDS011;49973;52.084;5.412;2022-12-10T11:23:52;44.37;;;16.33;;
61911;SDS011;49973;52.084;5.412;2022-12-10T11:26:27;55.63;;;17.67;;
61911;SDS011;49973;52.084;5.412;2022-12-10T11:29:13;42.90;;;16.97;;
61911;SDS011;49973;52.084;5.412;2022-12-10T11:32:06;63.47;;;16.23;;
61911;SDS011;49973;52.084;5.412;2022-12-10T11:34:50;80.53;;;17.57;;
61911;SDS011;49973;52.084;5.412;2022-12-10T11:37:30;60.83;;;18.20;;
61911;SDS011;49973;52.084;5.412;2022-12-10T11:40:06;59.13;;;16.07;;
61911;SDS011;49973;52.084;5.412;2022-12-10T11:42:47;42.17;;;14.80;;
61911;SDS011;49973;52.084;5.412;2022-12-10T11:45:23;43.03;;;16.53;;
61911;SDS011;49973;52.084;5.412;2022-12-10T11:48:02;45.17;;;14.60;;
61911;SDS011;49973;52.084;5.412;2022-12-10T11:50:41;54.07;;;15.10;;
61911;SDS011;49973;52.084;5.412;2022-12-10T11:53:26;50.67;;;15.83;;
61911;SDS011;49973;52.084;5.412;2022-12-10T11:56:11;45.47;;;14.70;;
61911;SDS011;49973;52.084;5.412;2022-12-10T11:58:57;47.10;;;15.33;;
61911;SDS011;49973;52.084;5.412;2022-12-10T12:01:36;93.07;;;19.17;;
61911;SDS011;49973;52.084;5.412;2022-12-10T12:04:20;54.67;;;15.17;;
61911;SDS011;49973;52.084;5.412;2022-12-10T12:07:07;47.37;;;15.73;;
61911;SDS011;49973;52.084;5.412;2022-12-10T12:09:59;58.50;;;18.00;;
61911;SDS011;49973;52.084;5.412;2022-12-10T12:12:45;40.73;;;15.60;;
61911;SDS011;49973;52.084;5.412;2022-12-10T12:15:25;37.77;;;15.53;;
61911;SDS011;49973;52.084;5.412;2022-12-10T12:17:58;51.93;;;17.30;;
61911;SDS011;49973;52.084;5.412;2022-12-10T12:20:30;58.87;;;17.43;;
61911;SDS011;49973;52.084;5.412;2022-12-10T12:23:02;47.13;;;17.47;;
61911;SDS011;49973;52.084;5.412;2022-12-10T12:25:39;50.17;;;16.63;;
61911;SDS011;49973;52.084;5.412;2022-12-10T12:28:14;50.00;;;16.87;;
61911;SDS011;49973;52.084;5.412;2022-12-10T12:30:53;41.37;;;15.53;;
61911;SDS011;49973;52.084;5.412;2022-12-10T12:33:28;47.03;;;15.10;;
61911;SDS011;49973;52.084;5.412;2022-12-10T12:36:00;47.47;;;17.10;;
61911;SDS011;49973;52.084;5.412;2022-12-10T12:38:35;45.83;;;16.40;;
61911;SDS011;49973;52.084;5.412;2022-12-10T12:41:10;46.03;;;17.90;;
61911;SDS011;49973;52.084;5.412;2022-12-10T12:43:46;55.07;;;17.50;;
61911;SDS011;49973;52.084;5.412;2022-12-10T12:46:23;60.10;;;17.60;;
61911;SDS011;49973;52.084;5.412;2022-12-10T12:49:02;60.93;;;19.33;;
61911;SDS011;49973;52.084;5.412;2022-12-10T12:51:39;58.37;;;16.23;;
61911;SDS011;49973;52.084;5.412;2022-12-10T12:54:11;43.50;;;15.00;;
61911;SDS011;49973;52.084;5.412;2022-12-10T12:56:51;61.97;;;16.97;;
61911;SDS011;49973;52.084;5.412;2022-12-10T12:59:31;64.03;;;15.77;;
61911;SDS011;49973;52.084;5.412;2022-12-10T13:02:13;49.00;;;17.00;;
61911;SDS011;49973;52.084;5.412;2022-12-10T13:04:48;50.67;;;15.30;;
61911;SDS011;49973;52.084;5.412;2022-12-10T13:07:32;46.33;;;16.33;;
61911;SDS011;49973;52.084;5.412;2022-12-10T13:13:15;53.47;;;16.13;;
61911;SDS011;49973;52.084;5.412;2022-12-10T13:15:51;60.10;;;16.63;;
61911;SDS011;49973;52.084;5.412;2022-12-10T13:18:34;51.00;;;16.20;;
61911;SDS011;49973;52.084;5.412;2022-12-10T13:21:26;46.10;;;15.37;;
61911;SDS011;49973;52.084;5.412;2022-12-10T13:24:06;46.67;;;15.30;;
61911;SDS011;49973;52.084;5.412;2022-12-10T13:26:41;48.30;;;15.70;;
61911;SDS011;49973;52.084;5.412;2022-12-10T13:29:30;46.33;;;16.70;;
61911;SDS011;49973;52.084;5.412;2022-12-10T13:32:15;53.00;;;15.80;;
61911;SDS011;49973;52.084;5.412;2022-12-10T13:34:47;41.23;;;16.80;;
61911;SDS011;49973;52.084;5.412;2022-12-10T13:37:53;50.00;;;16.73;;
61911;SDS011;49973;52.084;5.412;2022-12-10T13:40:25;43.03;;;15.83;;
61911;SDS011;49973;52.084;5.412;2022-12-10T13:42:56;49.60;;;14.83;;
61911;SDS011;49973;52.084;5.412;2022-12-10T13:48:57;44.63;;;15.37;;
61911;SDS011;49973;52.084;5.412;2022-12-10T13:51:34;44.77;;;16.03;;
61911;SDS011;49973;52.084;5.412;2022-12-10T13:54:20;46.17;;;17.87;;
61911;SDS011;49973;52.084;5.412;2022-12-10T13:57:09;52.50;;;15.07;;
61911;SDS011;49973;52.084;5.412;2022-12-10T13:59:50;67.93;;;16.17;;
61911;SDS011;49973;52.084;5.412;2022-12-10T14:02:42;67.87;;;17.67;;
61911;SDS011;49973;52.084;5.412;2022-12-10T14:05:33;52.47;;;14.17;;
61911;SDS011;49973;52.084;5.412;2022-12-10T14:08:21;51.93;;;16.10;;
61911;SDS011;49973;52.084;5.412;2022-12-10T14:10:53;77.17;;;15.63;;
61911;SDS011;49973;52.084;5.412;2022-12-10T14:13:28;53.57;;;18.30;;
61911;SDS011;49973;52.084;5.412;2022-12-10T14:16:01;43.17;;;15.70;;
61911;SDS011;49973;52.084;5.412;2022-12-10T14:18:32;55.57;;;17.40;;
61911;SDS011;49973;52.084;5.412;2022-12-10T14:21:02;76.10;;;17.27;;
61911;SDS011;49973;52.084;5.412;2022-12-10T14:23:35;67.63;;;18.43;;
61911;SDS011;49973;52.084;5.412;2022-12-10T14:26:13;55.57;;;18.73;;
61911;SDS011;49973;52.084;5.412;2022-12-10T14:28:44;66.53;;;17.23;;
61911;SDS011;49973;52.084;5.412;2022-12-10T14:31:14;53.00;;;17.50;;
61911;SDS011;49973;52.084;5.412;2022-12-10T14:33:46;61.37;;;18.27;;
61911;SDS011;49973;52.084;5.412;2022-12-10T14:36:17;52.73;;;16.90;;
61911;SDS011;49973;52.084;5.412;2022-12-10T14:38:53;66.70;;;17.30;;
61911;SDS011;49973;52.084;5.412;2022-12-10T14:41:22;48.33;;;17.07;;
61911;SDS011;49973;52.084;5.412;2022-12-10T14:43:54;92.97;;;17.37;;
61911;SDS011;49973;52.084;5.412;2022-12-10T14:46:23;53.00;;;17.53;;
61911;SDS011;49973;52.084;5.412;2022-12-10T14:48:53;88.70;;;19.07;;
61911;SDS011;49973;52.084;5.412;2022-12-10T14:51:22;54.80;;;16.67;;
61911;SDS011;49973;52.084;5.412;2022-12-10T14:53:54;62.57;;;19.63;;
61911;SDS011;49973;52.084;5.412;2022-12-10T14:56:24;65.97;;;18.53;;
61911;SDS011;49973;52.084;5.412;2022-12-10T14:58:59;57.63;;;20.27;;